createdAt,value
2018-05-04T00:01:26.305Z,5.80
2018-05-04T00:03:52.489Z,5.80
2018-05-04T00:06:19.438Z,5.70
2018-05-04T00:08:46.425Z,5.70
2018-05-04T00:11:12.578Z,5.70
2018-05-04T00:13:39.382Z,5.60
2018-05-04T00:16:05.541Z,5.60
2018-05-04T00:18:31.685Z,5.60
2018-05-04T00:20:58.221Z,5.60
2018-05-04T00:25:58.021Z,5.50
2018-05-04T00:28:24.165Z,5.50
2018-05-04T00:30:50.297Z,5.50
2018-05-04T00:33:16.441Z,5.50
2018-05-04T00:35:42.567Z,5.40
2018-05-04T00:38:08.733Z,5.30
2018-05-04T00:40:34.909Z,5.30
2018-05-04T00:43:01.030Z,5.40
2018-05-04T00:45:27.266Z,5.40
2018-05-04T00:47:53.390Z,5.30
2018-05-04T00:50:19.516Z,5.20
2018-05-04T00:52:46.021Z,5.10
2018-05-04T00:55:12.164Z,5.20
2018-05-04T00:57:38.270Z,5.30
2018-05-04T01:00:04.445Z,5.30
2018-05-04T01:02:30.581Z,5.30
2018-05-04T01:04:56.740Z,5.20
2018-05-04T01:07:22.870Z,5.20
2018-05-04T01:09:49.006Z,5.20
2018-05-04T01:12:15.141Z,5.20
2018-05-04T01:14:41.429Z,5.30
2018-05-04T01:17:08.316Z,5.00
2018-05-04T01:19:34.437Z,4.90
2018-05-04T01:22:00.609Z,5.00
2018-05-04T01:24:26.787Z,5.00
2018-05-04T01:26:52.966Z,4.90
2018-05-04T01:29:19.090Z,4.80
2018-05-04T01:31:45.225Z,4.60
2018-05-04T01:34:11.434Z,4.70
2018-05-04T01:36:37.575Z,4.70
2018-05-04T01:39:04.505Z,4.60
2018-05-04T01:41:30.621Z,4.70
2018-05-04T01:43:56.754Z,4.60
2018-05-04T01:46:22.870Z,4.60
2018-05-04T01:48:48.994Z,4.60
2018-05-04T01:51:15.114Z,4.60
2018-05-04T01:53:41.273Z,4.60
2018-05-04T01:56:07.413Z,4.50
2018-05-04T01:58:34.250Z,4.40
2018-05-04T02:01:00.385Z,4.40
2018-05-04T02:03:26.646Z,4.40
2018-05-04T02:05:52.764Z,4.50
2018-05-04T02:08:19.693Z,4.50
2018-05-04T02:10:46.593Z,4.40
2018-05-04T02:13:12.729Z,4.40
2018-05-04T02:15:38.886Z,4.40
2018-05-04T02:18:05.001Z,4.40
2018-05-04T02:20:31.124Z,4.50
2018-05-04T02:22:57.238Z,4.40
2018-05-04T02:25:23.470Z,4.30
2018-05-04T02:27:49.614Z,4.30
2018-05-04T02:30:15.729Z,4.30
2018-05-04T02:32:41.917Z,4.30
2018-05-04T02:35:08.038Z,4.30
2018-05-04T02:37:34.305Z,4.30
2018-05-04T02:40:00.425Z,4.30
2018-05-04T02:42:26.577Z,4.30
2018-05-04T02:44:52.849Z,4.20
2018-05-04T02:47:19.183Z,4.10
2018-05-04T02:49:45.307Z,4.10
2018-05-04T02:52:11.479Z,4.20
2018-05-04T02:54:37.602Z,4.20
2018-05-04T02:57:03.749Z,4.10
2018-05-04T02:59:30.075Z,4.10
2018-05-04T03:01:56.315Z,4.00
2018-05-04T03:04:23.184Z,4.00
2018-05-04T03:06:49.334Z,4.00
2018-05-04T03:09:15.498Z,4.00
2018-05-04T03:11:41.634Z,4.10
2018-05-04T03:14:07.781Z,4.00
2018-05-04T03:16:34.773Z,3.90
2018-05-04T03:19:00.898Z,3.90
2018-05-04T03:21:38.698Z,3.90
2018-05-04T03:24:05.263Z,3.90
2018-05-04T03:26:32.756Z,4.10
2018-05-04T03:28:59.291Z,4.10
2018-05-04T03:31:26.058Z,4.10
2018-05-04T03:33:52.367Z,4.00
2018-05-04T03:36:18.493Z,4.00
2018-05-04T03:38:45.357Z,4.00
2018-05-04T03:41:11.494Z,3.90
2018-05-04T03:43:37.631Z,3.90
2018-05-04T03:46:04.570Z,4.00
2018-05-04T03:48:30.713Z,3.80
2018-05-04T03:50:56.841Z,3.80
2018-05-04T03:53:23.369Z,3.80
2018-05-04T03:55:49.509Z,3.80
2018-05-04T03:58:27.921Z,3.90
2018-05-04T04:01:06.240Z,3.80
2018-05-04T04:03:44.739Z,3.80
2018-05-04T04:06:10.853Z,3.80
2018-05-04T04:08:37.093Z,3.80
2018-05-04T04:11:03.235Z,3.90
2018-05-04T04:13:29.355Z,4.00
2018-05-04T04:15:55.682Z,3.90
2018-05-04T04:18:21.790Z,4.00
2018-05-04T04:20:48.658Z,3.90
2018-05-04T04:23:14.830Z,3.90
2018-05-04T04:25:40.963Z,4.00
2018-05-04T04:28:07.253Z,4.00
2018-05-04T04:30:33.310Z,4.00
2018-05-04T04:32:59.902Z,4.10
2018-05-04T04:35:26.018Z,4.10
2018-05-04T04:37:52.182Z,4.20
2018-05-04T04:40:18.418Z,4.20
2018-05-04T04:42:44.550Z,4.30
2018-05-04T04:45:10.697Z,4.30
2018-05-04T04:47:36.872Z,4.30
2018-05-04T04:50:03.010Z,4.40
2018-05-04T04:52:29.141Z,4.40
2018-05-04T04:54:55.386Z,4.50
2018-05-04T04:57:21.510Z,4.60
2018-05-04T04:59:47.691Z,4.70
2018-05-04T05:02:13.909Z,4.70
2018-05-04T05:04:40.062Z,4.80
2018-05-04T05:07:06.221Z,4.80
2018-05-04T05:09:32.342Z,4.90
2018-05-04T05:11:59.238Z,5.10
2018-05-04T05:14:25.397Z,5.10
2018-05-04T05:16:51.629Z,5.20
2018-05-04T05:19:17.832Z,5.20
2018-05-04T05:21:43.957Z,5.30
2018-05-04T05:24:10.834Z,5.30
2018-05-04T05:26:37.293Z,5.30
2018-05-04T05:29:03.413Z,5.40
2018-05-04T05:31:30.301Z,5.50
2018-05-04T05:33:56.428Z,5.50
2018-05-04T05:36:22.594Z,5.60
2018-05-04T05:38:48.829Z,5.60
2018-05-04T05:41:14.956Z,5.70
2018-05-04T05:43:41.832Z,5.80
2018-05-04T05:46:08.242Z,5.80
2018-05-04T05:48:35.112Z,6.00
2018-05-04T05:51:01.245Z,6.00
2018-05-04T05:53:27.381Z,6.20
2018-05-04T05:55:53.569Z,6.70
2018-05-04T05:58:20.436Z,7.90
2018-05-04T06:00:47.353Z,8.50
2018-05-04T06:03:13.588Z,8.50
2018-05-04T06:05:39.806Z,8.50
2018-05-04T06:08:05.925Z,8.60
2018-05-04T06:10:32.190Z,9.00
2018-05-04T06:12:59.086Z,9.50
2018-05-04T06:15:25.217Z,9.50
2018-05-04T06:17:51.346Z,9.80
2018-05-04T06:20:17.510Z,10.10
2018-05-04T06:22:43.645Z,10.30
2018-05-04T06:25:10.641Z,10.30
2018-05-04T06:27:36.796Z,10.40
2018-05-04T06:30:03.062Z,10.50
2018-05-04T06:32:29.995Z,11.10
2018-05-04T06:34:56.199Z,11.00
2018-05-04T06:37:22.378Z,11.20
2018-05-04T06:39:48.530Z,11.20
2018-05-04T06:42:15.267Z,11.30
2018-05-04T06:44:41.437Z,11.40
2018-05-04T06:47:07.659Z,11.50
2018-05-04T06:49:33.835Z,11.80
2018-05-04T06:52:00.719Z,12.10
2018-05-04T06:54:26.872Z,12.10
2018-05-04T06:56:53.018Z,12.10
2018-05-04T06:59:19.917Z,11.90
2018-05-04T07:01:46.034Z,11.90
2018-05-04T07:04:12.233Z,11.80
2018-05-04T07:06:39.105Z,12.00
2018-05-04T07:09:05.410Z,11.90
2018-05-04T07:11:32.261Z,12.10
2018-05-04T07:13:58.909Z,12.10
2018-05-04T07:16:25.031Z,11.90
2018-05-04T07:18:51.430Z,11.90
2018-05-04T07:21:17.842Z,12.00
2018-05-04T07:23:44.718Z,12.20
2018-05-04T07:26:10.984Z,12.10
2018-05-04T07:28:37.118Z,11.90
2018-05-04T07:31:03.258Z,12.20
2018-05-04T07:33:29.377Z,12.40
2018-05-04T07:35:55.597Z,12.70
2018-05-04T07:38:22.808Z,13.00
2018-05-04T07:40:48.921Z,13.00
2018-05-04T07:43:15.465Z,12.80
2018-05-04T07:45:41.770Z,12.90
2018-05-04T07:48:07.882Z,12.90
2018-05-04T07:50:34.536Z,12.80
2018-05-04T07:53:00.669Z,12.80
2018-05-04T07:55:26.840Z,12.70
2018-05-04T07:57:52.999Z,13.30
2018-05-04T08:00:19.125Z,13.50
2018-05-04T08:02:46.043Z,13.50
2018-05-04T08:05:12.233Z,13.50
2018-05-04T08:07:38.377Z,13.70
2018-05-04T08:10:04.506Z,14.00
2018-05-04T08:12:30.828Z,14.40
2018-05-04T08:14:57.233Z,14.20
2018-05-04T08:17:23.918Z,14.20
2018-05-04T08:19:50.050Z,14.20
2018-05-04T08:22:16.234Z,14.20
2018-05-04T08:24:42.369Z,14.30
2018-05-04T08:27:08.588Z,14.40
2018-05-04T08:29:34.767Z,14.50
2018-05-04T08:32:00.881Z,14.50
2018-05-04T08:34:27.038Z,14.50
2018-05-04T08:36:53.319Z,14.60
2018-05-04T08:39:19.541Z,14.70
2018-05-04T08:41:45.673Z,14.70
2018-05-04T08:44:11.810Z,14.90
2018-05-04T08:46:37.933Z,14.80
2018-05-04T08:51:37.762Z,14.90
2018-05-04T08:54:03.894Z,14.80
2018-05-04T08:56:30.030Z,15.10
2018-05-04T08:58:56.221Z,15.30
2018-05-04T09:01:23.104Z,15.10
2018-05-04T09:03:49.366Z,15.10
2018-05-04T09:06:15.502Z,15.30
2018-05-04T09:08:41.628Z,15.40
2018-05-04T09:11:07.809Z,15.60
2018-05-04T09:13:34.022Z,15.50
2018-05-04T09:16:00.889Z,15.20
2018-05-04T09:18:27.017Z,15.30
2018-05-04T09:20:53.249Z,15.30
2018-05-04T09:23:19.373Z,15.50
2018-05-04T09:25:46.243Z,15.70
2018-05-04T09:28:12.877Z,15.60
2018-05-04T09:30:39.052Z,15.70
2018-05-04T09:33:05.197Z,15.90
2018-05-04T09:35:32.150Z,16.20
2018-05-04T09:37:59.014Z,16.40
2018-05-04T09:40:25.126Z,16.40
2018-05-04T09:42:52.197Z,16.80
2018-05-04T09:45:18.369Z,16.80
2018-05-04T09:47:44.493Z,17.10
2018-05-04T09:50:10.618Z,17.00
2018-05-04T09:52:36.775Z,17.10
2018-05-04T09:55:03.645Z,16.80
2018-05-04T09:57:30.259Z,16.80
2018-05-04T09:59:56.409Z,16.80
2018-05-04T10:02:22.519Z,16.70
2018-05-04T10:04:49.889Z,16.80
2018-05-04T10:07:16.323Z,16.80
2018-05-04T10:09:43.218Z,16.80
2018-05-04T10:12:09.377Z,16.80
2018-05-04T10:14:35.544Z,16.60
2018-05-04T10:17:01.678Z,16.80
2018-05-04T10:19:27.807Z,17.10
2018-05-04T10:21:54.045Z,17.10
2018-05-04T10:24:20.898Z,17.40
2018-05-04T10:26:47.014Z,17.30
2018-05-04T10:29:13.558Z,17.40
2018-05-04T10:31:39.781Z,17.00
2018-05-04T10:34:05.918Z,17.10
2018-05-04T10:36:32.053Z,17.30
2018-05-04T10:38:58.302Z,17.20
2018-05-04T10:41:24.438Z,16.90
2018-05-04T10:43:50.571Z,17.00
2018-05-04T10:46:16.737Z,17.20
2018-05-04T10:48:43.629Z,17.10
2018-05-04T10:51:09.810Z,17.10
2018-05-04T10:53:35.991Z,17.20
2018-05-04T10:56:02.149Z,16.80
2018-05-04T10:58:28.293Z,16.90
2018-05-04T11:00:54.405Z,17.40
2018-05-04T11:03:20.538Z,17.40
2018-05-04T11:05:46.705Z,17.40
2018-05-04T11:08:13.590Z,17.40
2018-05-04T11:10:39.718Z,17.40
2018-05-04T11:13:05.841Z,17.30
2018-05-04T11:15:31.974Z,17.20
2018-05-04T11:17:58.245Z,17.50
2018-05-04T11:20:24.357Z,17.60
2018-05-04T11:22:50.501Z,17.50
2018-05-04T11:25:16.681Z,17.40
2018-05-04T11:27:42.802Z,17.30
2018-05-04T11:30:08.922Z,17.40
2018-05-04T11:32:35.041Z,17.50
2018-05-04T11:35:01.909Z,17.60
2018-05-04T11:37:28.086Z,17.70
2018-05-04T11:39:54.961Z,17.60
2018-05-04T11:42:21.105Z,17.60
2018-05-04T11:44:47.262Z,17.30
2018-05-04T11:47:13.665Z,17.20
2018-05-04T11:49:40.018Z,17.30
2018-05-04T11:52:06.085Z,17.40
2018-05-04T11:54:32.239Z,17.50
2018-05-04T11:56:58.348Z,17.60
2018-05-04T11:59:24.595Z,17.40
2018-05-04T12:01:50.709Z,17.60
2018-05-04T12:04:16.873Z,17.70
2018-05-04T12:06:42.993Z,17.80
2018-05-04T12:09:09.245Z,17.80
2018-05-04T12:11:36.025Z,17.80
2018-05-04T12:14:02.906Z,17.90
2018-05-04T12:16:29.063Z,17.90
2018-05-04T12:18:55.193Z,17.60
2018-05-04T12:21:21.333Z,17.90
2018-05-04T12:23:47.470Z,18.00
2018-05-04T12:26:14.338Z,17.60
2018-05-04T12:28:40.809Z,17.60
2018-05-04T12:31:06.933Z,17.20
2018-05-04T12:33:33.137Z,17.40
2018-05-04T12:35:59.338Z,17.50
2018-05-04T12:38:26.309Z,17.50
2018-05-04T12:40:53.170Z,17.50
2018-05-04T12:43:19.293Z,17.50
2018-05-04T12:45:46.227Z,17.70
2018-05-04T12:48:12.403Z,17.70
2018-05-04T12:50:38.645Z,17.80
2018-05-04T12:53:04.780Z,17.90
2018-05-04T12:55:30.915Z,17.70
2018-05-04T12:57:57.123Z,17.80
2018-05-04T13:00:23.312Z,17.90
2018-05-04T13:02:49.530Z,17.70
2018-05-04T13:05:15.663Z,17.60
2018-05-04T13:07:41.795Z,17.60
2018-05-04T13:10:07.938Z,17.70
2018-05-04T13:12:34.114Z,17.80
2018-05-04T13:15:00.238Z,17.80
2018-05-04T13:17:26.448Z,17.90
2018-05-04T13:19:52.651Z,17.80
2018-05-04T13:22:19.574Z,17.80
2018-05-04T13:24:46.053Z,17.80
2018-05-04T13:27:12.183Z,17.80
2018-05-04T13:29:38.335Z,17.80
2018-05-04T13:32:04.500Z,17.70
2018-05-04T13:34:30.637Z,17.80
2018-05-04T13:36:57.497Z,17.80
2018-05-04T13:39:23.776Z,17.80
2018-05-04T13:41:49.937Z,17.80
2018-05-04T13:44:16.108Z,17.90
2018-05-04T13:46:42.237Z,17.90
2018-05-04T13:49:08.362Z,17.80
2018-05-04T13:51:34.589Z,17.70
2018-05-04T13:54:00.694Z,17.70
2018-05-04T13:56:26.841Z,17.80
2018-05-04T13:58:52.995Z,17.70
2018-05-04T14:01:19.279Z,17.70
2018-05-04T14:03:45.523Z,17.90
2018-05-04T14:06:11.627Z,18.10
2018-05-04T14:08:37.995Z,18.10
2018-05-04T14:11:04.158Z,17.90
2018-05-04T14:13:30.462Z,17.90
2018-05-04T14:15:56.889Z,17.50
2018-05-04T14:18:23.583Z,17.30
2018-05-04T14:20:50.945Z,17.90
2018-05-04T14:23:17.974Z,17.80
2018-05-04T14:25:44.110Z,17.80
2018-05-04T14:28:10.262Z,17.80
2018-05-04T14:30:36.830Z,17.80
2018-05-04T14:33:02.950Z,17.80
2018-05-04T14:35:29.278Z,17.90
2018-05-04T14:37:55.449Z,17.90
2018-05-04T14:40:21.577Z,17.80
2018-05-04T14:42:47.986Z,17.80
2018-05-04T14:45:14.085Z,17.70
2018-05-04T14:47:41.175Z,17.80
2018-05-04T14:50:07.309Z,17.80
2018-05-04T14:52:33.429Z,17.80
2018-05-04T14:54:59.597Z,17.90
2018-05-04T14:57:25.721Z,17.90
2018-05-04T14:59:51.958Z,17.90
2018-05-04T15:02:18.088Z,17.90
2018-05-04T15:04:44.371Z,17.80
2018-05-04T15:07:11.430Z,17.80
2018-05-04T15:09:38.900Z,17.80
2018-05-04T15:12:05.951Z,17.90
2018-05-04T15:14:32.135Z,17.90
2018-05-04T15:16:59.053Z,18.00
2018-05-04T15:19:25.266Z,18.00
2018-05-04T15:21:51.396Z,18.00
2018-05-04T15:24:17.534Z,17.90
2018-05-04T15:26:43.721Z,17.90
2018-05-04T15:29:10.726Z,17.80
2018-05-04T15:31:36.989Z,17.80
2018-05-04T15:34:03.911Z,17.80
2018-05-04T15:36:30.030Z,17.80
2018-05-04T15:38:56.211Z,17.80
2018-05-04T15:41:22.377Z,17.90
2018-05-04T15:43:49.002Z,17.90
2018-05-04T15:46:15.125Z,17.90
2018-05-04T15:48:48.877Z,17.90
2018-05-04T15:51:21.241Z,17.90
2018-05-04T15:53:47.403Z,17.90
2018-05-04T15:56:13.543Z,17.90
2018-05-04T15:58:39.685Z,17.90
2018-05-04T16:01:05.886Z,17.70
2018-05-04T16:03:32.100Z,17.60
2018-05-04T16:05:59.031Z,17.60
2018-05-04T16:08:25.201Z,17.60
2018-05-04T16:10:51.371Z,17.60
2018-05-04T16:13:17.502Z,17.70
2018-05-04T16:15:43.633Z,17.70
2018-05-04T16:18:09.777Z,17.70
2018-05-04T16:20:36.673Z,17.50
2018-05-04T16:23:02.810Z,17.50
2018-05-04T16:25:28.951Z,17.40
2018-05-04T16:27:55.225Z,17.30
2018-05-04T16:30:21.481Z,17.50
2018-05-04T16:32:47.666Z,17.50
2018-05-04T16:35:13.826Z,17.50
2018-05-04T16:37:39.980Z,17.50
2018-05-04T16:40:06.141Z,17.40
2018-05-04T16:42:32.397Z,17.20
2018-05-04T16:44:59.354Z,17.10
2018-05-04T16:47:25.426Z,17.00
2018-05-04T16:49:51.701Z,16.80
2018-05-04T16:52:17.839Z,16.70
2018-05-04T16:54:43.979Z,16.80
2018-05-04T16:57:10.899Z,16.80
2018-05-04T16:59:37.049Z,16.70
2018-05-04T17:02:03.226Z,16.70
2018-05-04T17:04:30.090Z,16.60
2018-05-04T17:06:56.229Z,16.50
2018-05-04T17:09:22.694Z,16.60
2018-05-04T17:11:48.838Z,16.40
2018-05-04T17:14:14.981Z,16.30
2018-05-04T17:16:41.150Z,16.30
2018-05-04T17:19:08.450Z,16.30
2018-05-04T17:21:34.728Z,16.30
2018-05-04T17:24:01.642Z,16.20
2018-05-04T17:26:27.801Z,16.20
2018-05-04T17:28:53.913Z,16.20
2018-05-04T17:31:20.038Z,16.00
2018-05-04T17:33:46.163Z,16.00
2018-05-04T17:36:12.299Z,15.80
2018-05-04T17:38:38.432Z,15.70
2018-05-04T17:41:04.701Z,15.70
2018-05-04T17:43:30.886Z,15.60
2018-05-04T17:45:57.009Z,15.40
2018-05-04T17:48:23.166Z,15.40
2018-05-04T17:50:50.032Z,15.40
2018-05-04T17:53:16.169Z,15.30
2018-05-04T17:55:42.311Z,15.30
2018-05-04T17:58:08.429Z,15.20
2018-05-04T18:00:34.567Z,15.20
2018-05-04T18:03:00.729Z,15.00
2018-05-04T18:05:27.193Z,15.00
2018-05-04T18:07:54.069Z,15.00
2018-05-04T18:10:20.336Z,15.00
2018-05-04T18:12:46.454Z,15.10
2018-05-04T18:15:12.573Z,14.90
2018-05-04T18:17:38.730Z,14.80
2018-05-04T18:20:04.878Z,14.80
2018-05-04T18:22:31.737Z,14.60
2018-05-04T18:24:57.866Z,14.60
2018-05-04T18:27:24.082Z,14.50
2018-05-04T18:29:50.953Z,14.40
2018-05-04T18:32:17.076Z,14.30
2018-05-04T18:34:43.241Z,14.40
2018-05-04T18:37:09.389Z,14.30
2018-05-04T18:39:35.513Z,14.20
2018-05-04T18:42:01.654Z,14.00
2018-05-04T18:44:28.523Z,13.90
2018-05-04T18:46:54.640Z,13.90
2018-05-04T18:49:20.774Z,13.90
2018-05-04T18:51:47.050Z,13.80
2018-05-04T18:54:13.185Z,13.70
2018-05-04T18:56:39.325Z,13.60
2018-05-04T18:59:05.494Z,13.60
2018-05-04T19:01:31.629Z,13.50
2018-05-04T19:03:57.761Z,13.40
2018-05-04T19:06:23.891Z,13.40
2018-05-04T19:08:50.054Z,13.30
2018-05-04T19:11:16.177Z,13.20
2018-05-04T19:13:42.313Z,13.10
2018-05-04T19:16:08.436Z,13.00
2018-05-04T19:18:35.321Z,12.90
2018-05-04T19:21:01.449Z,12.90
2018-05-04T19:23:27.688Z,12.80
2018-05-04T19:25:53.841Z,12.70
2018-05-04T19:28:19.980Z,12.70
2018-05-04T19:30:46.109Z,12.70
2018-05-04T19:33:12.240Z,12.70
2018-05-04T19:35:39.134Z,12.50
2018-05-04T19:38:05.253Z,12.50
2018-05-04T19:40:31.502Z,12.50
2018-05-04T19:42:57.742Z,12.40
2018-05-04T19:45:23.858Z,12.60
2018-05-04T19:47:50.057Z,12.40
2018-05-04T19:50:16.174Z,12.30
2018-05-04T19:52:43.045Z,12.10
2018-05-04T19:55:09.250Z,12.10
2018-05-04T19:57:36.115Z,12.00
2018-05-04T20:00:02.257Z,12.00
2018-05-04T20:02:28.398Z,12.00
2018-05-04T20:04:54.550Z,12.00
2018-05-04T20:07:20.660Z,12.00
2018-05-04T20:09:46.920Z,12.00
2018-05-04T20:12:13.045Z,11.90
2018-05-04T20:14:39.161Z,11.80
2018-05-04T20:17:05.299Z,11.80
2018-05-04T20:19:32.315Z,11.80
2018-05-04T20:21:58.465Z,11.70
2018-05-04T20:24:24.605Z,11.70
2018-05-04T20:26:51.522Z,11.60
2018-05-04T20:29:17.634Z,11.60
2018-05-04T20:31:43.770Z,11.50
2018-05-04T20:34:09.910Z,11.60
2018-05-04T20:36:36.047Z,11.50
2018-05-04T20:39:02.235Z,11.50
2018-05-04T20:41:28.418Z,11.40
2018-05-04T20:43:55.359Z,11.30
2018-05-04T20:46:22.233Z,11.20
2018-05-04T20:48:48.357Z,11.20
2018-05-04T20:51:14.530Z,11.30
2018-05-04T20:53:40.690Z,11.20
2018-05-04T20:56:07.594Z,11.20
2018-05-04T20:58:33.717Z,11.10
2018-05-04T21:00:59.931Z,11.10
2018-05-04T21:03:26.059Z,11.00
2018-05-04T21:08:25.347Z,10.90
2018-05-04T21:10:51.465Z,10.80
2018-05-04T21:13:18.338Z,10.60
2018-05-04T21:15:44.532Z,10.60
2018-05-04T21:18:11.394Z,10.50
2018-05-04T21:20:37.536Z,10.50
2018-05-04T21:23:03.792Z,10.40
2018-05-04T21:25:29.921Z,10.40
2018-05-04T21:27:56.098Z,10.20
2018-05-04T21:30:22.343Z,10.20
2018-05-04T21:32:48.454Z,10.10
2018-05-04T21:35:15.325Z,10.10
2018-05-04T21:37:41.513Z,10.10
2018-05-04T21:40:08.595Z,9.90
2018-05-04T21:42:34.718Z,9.80
2018-05-04T21:45:00.870Z,9.80
2018-05-04T21:47:27.003Z,9.80
2018-05-04T21:49:53.215Z,9.80
2018-05-04T21:52:20.278Z,9.70
2018-05-04T21:54:46.420Z,9.50
2018-05-04T21:57:12.542Z,9.60
2018-05-04T21:59:38.745Z,9.50
2018-05-04T22:02:04.881Z,9.50
2018-05-04T22:04:31.038Z,9.40
2018-05-04T22:06:57.190Z,9.40
2018-05-04T22:09:23.417Z,9.40
2018-05-04T22:11:50.313Z,9.30
2018-05-04T22:14:16.446Z,9.30
2018-05-04T22:16:42.572Z,9.30
2018-05-04T22:19:08.707Z,9.30
2018-05-04T22:21:34.851Z,9.20
2018-05-04T22:24:00.985Z,9.20
2018-05-04T22:26:27.865Z,9.20
2018-05-04T22:28:54.018Z,9.10
2018-05-04T22:31:20.181Z,9.10
2018-05-04T22:33:46.353Z,9.10
2018-05-04T22:36:12.502Z,9.10
2018-05-04T22:38:38.690Z,9.10
2018-05-04T22:41:04.817Z,9.20
2018-05-04T22:43:30.938Z,9.10
2018-05-04T22:45:57.094Z,9.10
2018-05-04T22:48:23.219Z,9.00
2018-05-04T22:50:49.349Z,9.00
2018-05-04T22:53:15.475Z,9.00
2018-05-04T22:55:41.636Z,8.90
2018-05-04T22:58:07.757Z,8.90
2018-05-04T23:00:34.018Z,8.80
2018-05-04T23:03:00.891Z,8.80
2018-05-04T23:05:27.015Z,8.80
2018-05-04T23:07:53.175Z,8.70
2018-05-04T23:10:19.315Z,8.60
2018-05-04T23:12:45.459Z,8.60
2018-05-04T23:15:12.328Z,8.50
2018-05-04T23:17:38.462Z,8.50
2018-05-04T23:20:04.593Z,8.50
2018-05-04T23:22:30.730Z,8.50
2018-05-04T23:24:56.863Z,8.50
2018-05-04T23:27:23.342Z,8.60
2018-05-04T23:29:50.301Z,8.50
2018-05-04T23:32:17.169Z,8.50
2018-05-04T23:34:44.330Z,8.40
2018-05-04T23:37:10.501Z,8.40
2018-05-04T23:39:36.834Z,8.40
2018-05-04T23:42:03.540Z,8.40
2018-05-04T23:44:29.653Z,8.40
2018-05-04T23:46:56.525Z,8.20
2018-05-04T23:49:23.045Z,8.20
2018-05-04T23:51:49.253Z,8.20
2018-05-04T23:54:15.373Z,8.20
2018-05-04T23:56:42.713Z,8.20
2018-05-04T23:59:09.018Z,8.20
